Observation data for Northwest San Angelo on 12/10/2019      Previous  Date       Current Mesonet Observations  Soil Data  Daily Summary Page  Observations in Plain Language
KASU 100600Z 02008G16KT 04/02 A301 RMK A01 T00360016  RH  088%=      5-min Rain = 0
KASU 100605Z 03006KT 04/02 A3009 RMK A01 T00360016  RH  088%=      5-min Rain = 0.01
KASU 100610Z 03004G9KT 04/02 A3009 RMK A01 T00360017  RH  089%=      5-min Rain = 0.01
KASU 100615Z 02004KT 04/02 A301 RMK A01 T00360017  RH  089%=      5-min Rain = 0
KASU 100620Z 01006G12KT 04/02 A301 RMK A01 T00350016  RH  089%=      5-min Rain = 0.01
KASU 100625Z 00006G14KT 03/02 A3011 RMK A01 T00340015  RH  089%=      5-min Rain = 0.01
KASU 100630Z 00008KT 03/01 A3011 RMK A01 T00320013  RH  089%=      5-min Rain = 0.01
KASU 100635Z 02008G13KT 03/01 A3012 RMK A01 T00290011  RH  089%=      5-min Rain = 0.01
KASU 100640Z 01006G11KT 03/01 A3012 RMK A01 T00290010  RH  089%=      5-min Rain = 0.01
KASU 100645Z 01006G12KT 03/01 A3012 RMK A01 T00300011  RH  089%=      5-min Rain = 0
KASU 100650Z 01004KT 03/01 A3013 RMK A01 T00300011  RH  089%=      5-min Rain = 0.02
KASU 100655Z 01004KT 03/01 A3013 RMK A01 T00300012  RH  089%=      5-min Rain = 0.01
KASU 100700Z 01005KT 03/01 A3013 RMK A01 T00290011  RH  089%=      5-min Rain = 0.01
KASU 100705Z 02004KT 03/01 A3013 RMK A01 T00290010  RH  089%=      5-min Rain = 0.01
KASU 100710Z 02004KT 03/01 A3013 RMK A01 T00290011  RH  089%=      5-min Rain = 0.02
KASU 100715Z 01004KT 03/01 A3014 RMK A01 T00290011  RH  089%=      5-min Rain = 0.01
KASU 100720Z 01003KT 03/01 A3014 RMK A01 T00290011  RH  089%=      5-min Rain = 0.02
KASU 100725Z 01006KT 03/01 A3014 RMK A01 T00280010  RH  089%=      5-min Rain = 0.02
KASU 100730Z 01006KT 03/01 A3014 RMK A01 T00270010  RH  089%=      5-min Rain = 0.02
KASU 100735Z 01004KT 03/01 A3015 RMK A01 T00270010  RH  090%=      5-min Rain = 0.02
KASU 100740Z 35003KT 03/01 A3015 RMK A01 T00280011  RH  090%=      5-min Rain = 0.02
KASU 100745Z 35003KT 03/01 A3015 RMK A01 T00280011  RH  090%=      5-min Rain = 0.02
KASU 100750Z 01002KT 03/01 A3015 RMK A01 T00280011  RH  090%=      5-min Rain = 0.02
KASU 100755Z 04001KT 03/01 A3015 RMK A01 T00280012  RH  090%=      5-min Rain = 0.02
KASU 100800Z 06002KT 03/01 A3014 RMK A01 T00280012  RH  090%=      5-min Rain = 0.02
KASU 100805Z 05003KT 03/01 A3015 RMK A01 T00280012  RH  090%=      5-min Rain = 0.02
KASU 100810Z 05002KT 03/01 A3015 RMK A01 T00290013  RH  091%=      5-min Rain = 0.01
KASU 100815Z 04002KT 03/01 A3015 RMK A01 T00280012  RH  091%=      5-min Rain = 0.01
KASU 100820Z 03002KT 03/01 A3015 RMK A01 T00280013  RH  091%=      5-min Rain = 0.02
KASU 100825Z 03002KT 03/01 A3015 RMK A01 T00280013  RH  091%=      5-min Rain = 0.01
KASU 100830Z 03001KT 03/01 A3015 RMK A01 T00280013  RH  091%=      5-min Rain = 0.02
KASU 100835Z 03001KT 03/01 A3015 RMK A01 T00280013  RH  091%=      5-min Rain = 0.02
KASU 100840Z 03002KT 03/01 A3015 RMK A01 T00280014  RH  091%=      5-min Rain = 0.01
KASU 100845Z 05002KT 03/01 A3014 RMK A01 T00290014  RH  092%=      5-min Rain = 0.02
KASU 100850Z 06002KT 03/01 A3013 RMK A01 T00280014  RH  092%=      5-min Rain = 0.01
KASU 100855Z 08003KT 03/01 A3013 RMK A01 T00280014  RH  092%=      5-min Rain = 0.01
KASU 100900Z 10002KT 03/01 A3013 RMK A01 T00280014  RH  092%=      5-min Rain = 0.01
KASU 100905Z 09002KT 03/01 A3014 RMK A01 T00280014  RH  092%=      5-min Rain = 0.01
KASU 100910Z 12002KT 03/01 A3015 RMK A01 T00270014  RH  092%=      5-min Rain = 0
KASU 100915Z 08002KT 03/01 A3015 RMK A01 T00270014  RH  092%=      5-min Rain = 0.01
KASU 100920Z 07003KT 03/01 A3015 RMK A01 T00270013  RH  092%=      5-min Rain = 0
KASU 100925Z 06002KT 03/01 A3015 RMK A01 T00270014  RH  092%=      5-min Rain = 0.01
KASU 100930Z 06003KT 03/01 A3015 RMK A01 T00270014  RH  092%=      5-min Rain = 0.01
KASU 100935Z 07003KT 03/02 A3015 RMK A01 T00280015  RH  092%=      5-min Rain = 0.01
KASU 100940Z 07004KT 03/02 A3016 RMK A01 T00280015  RH  092%=      5-min Rain = 0.01
KASU 100945Z 06004KT 03/01 A3016 RMK A01 T00270014  RH  092%=      5-min Rain = 0.01
KASU 100950Z 06004KT 03/01 A3016 RMK A01 T00270014  RH  093%=      5-min Rain = 0.02
KASU 100955Z 05004KT 03/01 A3016 RMK A01 T00270014  RH  093%=      5-min Rain = 0.01
KASU 101000Z 02003G9KT 03/01 A3016 RMK A01 T00270014  RH  093%=      5-min Rain = 0.02
KASU 101005Z 04007KT 02/01 A3016 RMK A01 T00220009  RH  093%=      5-min Rain = 0.01
KASU 101010Z 03006KT 02/01 A3016 RMK A01 T00210008  RH  093%=      5-min Rain = 0.01
KASU 101015Z 03005KT 02/01 A3015 RMK A01 T00200007  RH  093%=      5-min Rain = 0.01
KASU 101020Z 02006KT 02/01 A3015 RMK A01 T00180006  RH  093%=      5-min Rain = 0.01
KASU 101025Z 03007KT 02/00 A3015 RMK A01 T00160004  RH  093%=      5-min Rain = 0.01
KASU 101030Z 04006KT 02/00 A3015 RMK A01 T00150003  RH  093%=      5-min Rain = 0.01
KASU 101035Z 03004KT 02/00 A3015 RMK A01 T00150003  RH  093%=      5-min Rain = 0.01
KASU 101040Z 01004KT 02/00 A3016 RMK A01 T00150003  RH  093%=      5-min Rain = 0
KASU 101045Z 00005KT 02/00 A3017 RMK A01 T00150003  RH  093%=      5-min Rain = 0
KASU 101050Z 01006KT 01/00 A3018 RMK A01 T00140001  RH  093%=      5-min Rain = 0
KASU 101055Z 01005KT 01/00 A3018 RMK A01 T00140001  RH  093%=      5-min Rain = 0.01
KASU 101100Z 36004KT 01/00 A3018 RMK A01 T00140002  RH  093%=      5-min Rain = 0
KASU 101105Z 01004KT 02/00 A3017 RMK A01 T00150003  RH  093%=      5-min Rain = 0
KASU 101110Z 00005KT 02/00 A3017 RMK A01 T00150003  RH  093%=      5-min Rain = 0
KASU 101115Z 02004KT 01/00 A3018 RMK A01 T00140002  RH  093%=      5-min Rain = 0
KASU 101120Z 03003KT 02/00 A3018 RMK A01 T00150002  RH  093%=      5-min Rain = 0
KASU 101125Z 04003KT 02/00 A3018 RMK A01 T00150003  RH  093%=      5-min Rain = 0.01
KASU 101130Z 03003KT 02/00 A3018 RMK A01 T00150003  RH  093%=      5-min Rain = 0
KASU 101135Z 04003KT 02/00 A3019 RMK A01 T00150003  RH  093%=      5-min Rain = 0
KASU 101140Z 04003KT 02/00 A3018 RMK A01 T00160003  RH  093%=      5-min Rain = 0
KASU 101145Z 04005KT 02/00 A3018 RMK A01 T00150003  RH  093%=      5-min Rain = 0
KASU 101150Z 04005KT 02/00 A3018 RMK A01 T00150003  RH  093%=      5-min Rain = 0
KASU 101155Z 04004KT 02/00 A3018 RMK A01 T00150002  RH  093%=      5-min Rain = 0
KASU 101200Z 03004KT 02/00 A3019 RMK A01 T00150003  RH  093%=      5-min Rain = 0
KASU 101205Z 03004KT 02/00 A302 RMK A01 T00150003  RH  093%=      5-min Rain = 0
KASU 101210Z 03003KT 02/00 A302 RMK A01 T00150003  RH  093%=      5-min Rain = 0
KASU 101215Z 02002KT 02/00 A3021 RMK A01 T00150003  RH  093%=      5-min Rain = 0.01
KASU 101220Z 01003KT 02/00 A3022 RMK A01 T00150003  RH  093%=      5-min Rain = 0
KASU 101225Z 01003KT 02/00 A3022 RMK A01 T00160003  RH  093%=      5-min Rain = 0
KASU 101230Z 35003KT 02/01 A3022 RMK A01 T00170005  RH  093%=      5-min Rain = 0
KASU 101235Z 34005KT 02/01 A3023 RMK A01 T00170005  RH  093%=      5-min Rain = 0.01
KASU 101240Z 34005KT 02/01 A3022 RMK A01 T00170005  RH  093%=      5-min Rain = 0
KASU 101245Z 35005KT 02/01 A3021 RMK A01 T00170005  RH  093%=      5-min Rain = 0.01
KASU 101250Z 35007KT 02/00 A3021 RMK A01 T00160004  RH  093%=      5-min Rain = 0
KASU 101255Z 00006KT 02/00 A302 RMK A01 T00160003  RH  093%=      5-min Rain = 0
KASU 101300Z 01005KT 02/00 A3021 RMK A01 T00150002  RH  093%=      5-min Rain = 0
KASU 101305Z 01006G11KT 01/00 A3021 RMK A01 T00130001  RH  093%=      5-min Rain = 0
KASU 101310Z 01006KT 01/M00 A3022 RMK A01 T00121001  RH  092%=      5-min Rain = 0.01
KASU 101315Z 01006KT 01/M00 A3021 RMK A01 T00111001  RH  092%=      5-min Rain = 0
KASU 101320Z 02007G13KT 01/M00 A3022 RMK A01 T00101003  RH  092%=      5-min Rain = 0
KASU 101325Z 02005G10KT 01/M00 A3023 RMK A01 T00101003  RH  092%=      5-min Rain = 0
KASU 101330Z 03004KT 01/M00 A3023 RMK A01 T00111001  RH  092%=      5-min Rain = 0
KASU 101335Z 03004KT 01/M00 A3024 RMK A01 T00111002  RH  092%=      5-min Rain = 0
KASU 101340Z 01003KT 01/M00 A3025 RMK A01 T00121001  RH  092%=      5-min Rain = 0
KASU 101345Z 35002KT 01/00 A3026 RMK A01 T00130000  RH  092%=      5-min Rain = 0
KASU 101350Z 00002KT 01/00 A3026 RMK A01 T00140000  RH  092%=      5-min Rain = 0
KASU 101355Z 35004KT 01/00 A3026 RMK A01 T00140000  RH  092%=      5-min Rain = 0
KASU 101400Z 35005KT 01/00 A3027 RMK A01 T00140000  RH  092%=      5-min Rain = 0
KASU 101405Z 35006KT 01/00 A3027 RMK A01 T00140000  RH  092%=      5-min Rain = 0.01
KASU 101410Z 36005KT 01/00 A3027 RMK A01 T001300-0  RH  092%=      5-min Rain = 0
KASU 101415Z 01004KT 01/M00 A3027 RMK A01 T00131001  RH  092%=      5-min Rain = 0
KASU 101420Z 02004KT 01/M00 A3027 RMK A01 T00121002  RH  091%=      5-min Rain = 0.01
KASU 101425Z 01003KT 01/M00 A3026 RMK A01 T00111003  RH  091%=      5-min Rain = 0
KASU 101430Z 01004KT 01/M00 A3027 RMK A01 T00121003  RH  091%=      5-min Rain = 0
KASU 101435Z 36003KT 01/M00 A3027 RMK A01 T00131001  RH  091%=      5-min Rain = 0
KASU 101440Z 01002KT 01/00 A3027 RMK A01 T001400-0  RH  091%=      5-min Rain = 0
KASU 101445Z 33004KT 01/M00 A3029 RMK A01 T00141001  RH  091%=      5-min Rain = 0
KASU 101450Z 34005KT 01/M00 A303 RMK A01 T00121003  RH  091%=      5-min Rain = 0
KASU 101455Z 35004KT 01/M00 A303 RMK A01 T00131003  RH  091%=      5-min Rain = 0
KASU 101500Z 36004KT 01/M00 A303 RMK A01 T00121004  RH  090%=      5-min Rain = 0
KASU 101505Z 36005KT 01/M01 A303 RMK A01 T00111005  RH  090%=      5-min Rain = 0
KASU 101510Z 36004KT 01/M01 A303 RMK A01 T00121005  RH  089%=      5-min Rain = 0
KASU 101515Z 00003KT 01/M00 A303 RMK A01 T00141004  RH  089%=      5-min Rain = 0
KASU 101520Z 35005KT 01/M00 A303 RMK A01 T00141004  RH  089%=      5-min Rain = 0
KASU 101525Z 34005KT 01/M01 A3031 RMK A01 T00141005  RH  088%=      5-min Rain = 0
KASU 101530Z 00004KT 02/M01 A3032 RMK A01 T00151005  RH  087%=      5-min Rain = 0
KASU 101535Z 01004KT 02/M00 A3031 RMK A01 T00171004  RH  087%=      5-min Rain = 0
KASU 101540Z 02004KT 02/M01 A3031 RMK A01 T00161006  RH  086%=      5-min Rain = 0
KASU 101545Z 04004KT 02/M01 A3031 RMK A01 T00181005  RH  085%=      5-min Rain = 0
KASU 101550Z 01003KT 02/M00 A3032 RMK A01 T00211003  RH  085%=      5-min Rain = 0
KASU 101555Z 35005KT 02/M01 A3033 RMK A01 T00181008  RH  084%=      5-min Rain = 0
KASU 101600Z 36005KT 02/M01 A3033 RMK A01 T00181011  RH  082%=      5-min Rain = 0
KASU 101605Z 01004KT 02/M01 A3033 RMK A01 T00191012  RH  081%=      5-min Rain = 0
KASU 101610Z 03004KT 02/M01 A3033 RMK A01 T00191014  RH  080%=      5-min Rain = 0
KASU 101615Z 01004KT 02/M02 A3033 RMK A01 T00201015  RH  079%=      5-min Rain = 0
KASU 101620Z 36005KT 02/M02 A3034 RMK A01 T00211016  RH  078%=      5-min Rain = 0
KASU 101625Z 00004KT 02/M02 A3034 RMK A01 T00211017  RH  076%=      5-min Rain = 0
KASU 101630Z 02003KT 02/M02 A3034 RMK A01 T00231016  RH  076%=      5-min Rain = 0
KASU 101635Z 01004KT 02/M02 A3034 RMK A01 T00231018  RH  075%=      5-min Rain = 0
KASU 101640Z 02004KT 02/M02 A3033 RMK A01 T00241018  RH  074%=      5-min Rain = 0
KASU 101645Z 03004G9KT 02/M02 A3033 RMK A01 T00241020  RH  073%=      5-min Rain = 0
KASU 101650Z 02004KT 03/M02 A3034 RMK A01 T00261021  RH  072%=      5-min Rain = 0
KASU 101655Z 03004KT 03/M02 A3033 RMK A01 T00271019  RH  072%=      5-min Rain = 0
KASU 101700Z 03004KT 03/M02 A3032 RMK A01 T00291016  RH  073%=      5-min Rain = 0
KASU 101705Z 04004KT 03/M02 A3033 RMK A01 T00311015  RH  072%=      5-min Rain = 0
KASU 101710Z 02004KT 03/M02 A3033 RMK A01 T00311017  RH  071%=      5-min Rain = 0
KASU 101715Z 03005KT 03/M02 A3033 RMK A01 T00341016  RH  071%=      5-min Rain = 0
KASU 101720Z 04005KT 03/M02 A3033 RMK A01 T00331020  RH  069%=      5-min Rain = 0
KASU 101725Z 04005KT 03/M02 A3033 RMK A01 T00341019  RH  068%=      5-min Rain = 0
KASU 101730Z 04005KT 04/M02 A3034 RMK A01 T00361018  RH  068%=      5-min Rain = 0
KASU 101735Z 03005KT 04/M02 A3033 RMK A01 T00361020  RH  067%=      5-min Rain = 0
KASU 101740Z 03003KT 04/M02 A3034 RMK A01 T00381020  RH  066%=      5-min Rain = 0
KASU 101745Z 03003KT 04/M01 A3034 RMK A01 T00431014  RH  067%=      5-min Rain = 0
KASU 101750Z 01004KT 04/M01 A3034 RMK A01 T00441013  RH  067%=      5-min Rain = 0
KASU 101755Z 34005KT 04/M01 A3034 RMK A01 T00421013  RH  068%=      5-min Rain = 0
KASU 101800Z 01004KT 04/M01 A3033 RMK A01 T00431011  RH  068%=      5-min Rain = 0
KASU 101805Z 04003KT 05/M01 A3033 RMK A01 T00451014  RH  066%=      5-min Rain = 0
KASU 101810Z 08004G9KT 05/M01 A3032 RMK A01 T00501012  RH  065%=      5-min Rain = 0
KASU 101815Z 08004KT 05/M02 A3032 RMK A01 T00491019  RH  062%=      5-min Rain = 0
KASU 101820Z 01001KT 05/M02 A3032 RMK A01 T00541016  RH  061%=      5-min Rain = 0
KASU 101825Z 01002KT 06/M01 A3032 RMK A01 T00601012  RH  060%=      5-min Rain = 0
KASU 101830Z 06004KT 06/M02 A3032 RMK A01 T00591015  RH  059%=      5-min Rain = 0
KASU 101835Z 06004KT 06/M01 A3031 RMK A01 T00591013  RH  061%=      5-min Rain = 0
KASU 101840Z 01003G8KT 06/M01 A3031 RMK A01 T00621009  RH  061%=      5-min Rain = 0
KASU 101845Z 02005KT 06/M01 A3031 RMK A01 T00631013  RH  059%=      5-min Rain = 0
KASU 101850Z 06004KT 06/M01 A303 RMK A01 T00641012  RH  058%=      5-min Rain = 0
KASU 101855Z 07002KT 06/M01 A303 RMK A01 T00641014  RH  058%=      5-min Rain = 0
KASU 101900Z 07003KT 07/M01 A303 RMK A01 T00671013  RH  057%=      5-min Rain = 0
KASU 101905Z 04004KT 07/M02 A303 RMK A01 T00651015  RH  057%=      5-min Rain = 0
KASU 101910Z 35003KT 07/M01 A303 RMK A01 T00661013  RH  058%=      5-min Rain = 0
KASU 101915Z 05004G9KT 07/M01 A303 RMK A01 T00661006  RH  060%=      5-min Rain = 0
KASU 101920Z 12003KT 07/M01 A303 RMK A01 T00701007  RH  059%=      5-min Rain = 0
KASU 101925Z 13004KT 07/M01 A3029 RMK A01 T00701010  RH  057%=      5-min Rain = 0
KASU 101930Z 13005KT 07/M01 A3029 RMK A01 T00711010  RH  057%=      5-min Rain = 0
KASU 101935Z 14004KT 07/M01 A3029 RMK A01 T00691013  RH  057%=      5-min Rain = 0
KASU 101940Z 16004KT 07/M02 A3029 RMK A01 T00661015  RH  057%=      5-min Rain = 0
KASU 101945Z 16003KT 07/M01 A3029 RMK A01 T00681012  RH  057%=      5-min Rain = 0
KASU 101950Z 14005KT 07/M01 A3029 RMK A01 T00711007  RH  058%=      5-min Rain = 0
KASU 101955Z 13003KT 07/M01 A3029 RMK A01 T00691011  RH  057%=      5-min Rain = 0
KASU 102000Z 17003KT 07/M01 A3029 RMK A01 T00691011  RH  057%=      5-min Rain = 0
KASU 102005Z 19003KT 07/M01 A3029 RMK A01 T00651009  RH  060%=      5-min Rain = 0
KASU 102010Z 13003KT 07/M01 A3029 RMK A01 T00671009  RH  059%=      5-min Rain = 0
KASU 102015Z 09003KT 07/M01 A3029 RMK A01 T00691010  RH  058%=      5-min Rain = 0
KASU 102020Z 08004KT 07/M01 A3029 RMK A01 T00701009  RH  058%=      5-min Rain = 0
KASU 102025Z 08002KT 07/M01 A3029 RMK A01 T00681012  RH  057%=      5-min Rain = 0
KASU 102030Z 29001KT 07/M01 A303 RMK A01 T00681011  RH  058%=      5-min Rain = 0
KASU 102035Z 25002KT 07/M01 A303 RMK A01 T00661006  RH  060%=      5-min Rain = 0
KASU 102040Z 17002KT 07/M01 A303 RMK A01 T00661006  RH  060%=      5-min Rain = 0
KASU 102045Z 11002KT 07/M01 A303 RMK A01 T00691006  RH  059%=      5-min Rain = 0
KASU 102050Z 12002KT 07/M01 A3029 RMK A01 T00691008  RH  059%=      5-min Rain = 0
KASU 102055Z 10002KT 07/M01 A3029 RMK A01 T00701005  RH  059%=      5-min Rain = 0
KASU 102100Z 10002KT 07/M01 A303 RMK A01 T00701007  RH  059%=      5-min Rain = 0
KASU 102105Z 09003KT 07/M01 A303 RMK A01 T00711006  RH  059%=      5-min Rain = 0
KASU 102110Z 11003KT 07/M01 A303 RMK A01 T00721005  RH  059%=      5-min Rain = 0
KASU 102115Z 12003KT 07/M01 A303 RMK A01 T00711006  RH  059%=      5-min Rain = 0
KASU 102120Z 13003KT 07/M01 A303 RMK A01 T00721005  RH  059%=      5-min Rain = 0
KASU 102125Z 12004KT 07/M00 A303 RMK A01 T00721004  RH  059%=      5-min Rain = 0
KASU 102130Z 13004KT 07/M00 A303 RMK A01 T00721004  RH  059%=      5-min Rain = 0
KASU 102135Z 09004KT 07/M00 A303 RMK A01 T00731004  RH  059%=      5-min Rain = 0
KASU 102140Z 11003KT 07/M00 A303 RMK A01 T00731002  RH  059%=      5-min Rain = 0
KASU 102145Z 10004KT 07/M00 A303 RMK A01 T00721003  RH  059%=      5-min Rain = 0
KASU 102150Z 12003KT 07/M00 A303 RMK A01 T00731003  RH  059%=      5-min Rain = 0
KASU 102155Z 12004KT 07/M00 A303 RMK A01 T00741003  RH  059%=      5-min Rain = 0
KASU 102200Z 10004KT 07/M00 A303 RMK A01 T00741001  RH  060%=      5-min Rain = 0
KASU 102205Z 11003KT 07/M00 A3031 RMK A01 T00721002  RH  060%=      5-min Rain = 0
KASU 102210Z 11004KT 07/00 A3031 RMK A01 T007300-0  RH  061%=      5-min Rain = 0
KASU 102215Z 10003KT 07/M00 A3031 RMK A01 T00701002  RH  061%=      5-min Rain = 0
KASU 102220Z 09002KT 07/00 A3031 RMK A01 T00720001  RH  061%=      5-min Rain = 0
KASU 102225Z 09002KT 07/M00 A3031 RMK A01 T00701001  RH  061%=      5-min Rain = 0
KASU 102230Z 14003KT 07/00 A3031 RMK A01 T00710001  RH  062%=      5-min Rain = 0
KASU 102235Z 10003KT 07/00 A3032 RMK A01 T00710001  RH  062%=      5-min Rain = 0
KASU 102240Z 11002KT 07/00 A3032 RMK A01 T00700001  RH  062%=      5-min Rain = 0
KASU 102245Z 13003KT 07/00 A3032 RMK A01 T006900-0  RH  062%=      5-min Rain = 0
KASU 102250Z 13003KT 07/00 A3032 RMK A01 T00690001  RH  062%=      5-min Rain = 0
KASU 102255Z 15002KT 07/00 A3032 RMK A01 T00690001  RH  063%=      5-min Rain = 0
KASU 102300Z 17002KT 07/00 A3032 RMK A01 T00690001  RH  063%=      5-min Rain = 0
KASU 102305Z 13002KT 07/00 A3033 RMK A01 T00690002  RH  063%=      5-min Rain = 0
KASU 102310Z 16002KT 07/00 A3033 RMK A01 T00680001  RH  063%=      5-min Rain = 0
KASU 102315Z 14001KT 07/00 A3033 RMK A01 T00680002  RH  063%=      5-min Rain = 0
KASU 102320Z 14002KT 07/00 A3033 RMK A01 T00680003  RH  064%=      5-min Rain = 0
KASU 102325Z 12002KT 07/00 A3033 RMK A01 T00680003  RH  064%=      5-min Rain = 0
KASU 102330Z 16001KT 07/00 A3033 RMK A01 T00670003  RH  064%=      5-min Rain = 0
KASU 102335Z 13002KT 07/00 A3033 RMK A01 T00670003  RH  064%=      5-min Rain = 0
KASU 102340Z 11002KT 07/00 A3034 RMK A01 T00660002  RH  064%=      5-min Rain = 0
KASU 102345Z 11002KT 07/00 A3034 RMK A01 T00660003  RH  065%=      5-min Rain = 0
KASU 102350Z 12002KT 07/00 A3034 RMK A01 T00650003  RH  065%=      5-min Rain = 0
KASU 102355Z 12002KT 07/00 A3034 RMK A01 T00650003  RH  065%=      5-min Rain = 0
KASU 110000Z 12002KT 07/00 A3034 RMK A01 T00650004  RH  066%=      5-min Rain = 0
KASU 110005Z 12002KT 07/01 A3035 RMK A01 T00650005  RH  066%=      5-min Rain = 0
KASU 110010Z 13003KT 06/01 A3035 RMK A01 T00640005  RH  067%=      5-min Rain = 0
KASU 110015Z 13003KT 06/01 A3035 RMK A01 T00630005  RH  067%=      5-min Rain = 0
KASU 110020Z 12003KT 06/01 A3035 RMK A01 T00620005  RH  068%=      5-min Rain = 0
KASU 110025Z 11003KT 06/01 A3035 RMK A01 T00610006  RH  069%=      5-min Rain = 0
KASU 110030Z 10003KT 06/01 A3035 RMK A01 T00600006  RH  069%=      5-min Rain = 0
KASU 110035Z 10003KT 06/01 A3035 RMK A01 T00590006  RH  070%=      5-min Rain = 0
KASU 110040Z 09004KT 06/01 A3035 RMK A01 T00590007  RH  070%=      5-min Rain = 0
KASU 110045Z 09004KT 06/01 A3036 RMK A01 T00590008  RH  071%=      5-min Rain = 0
KASU 110050Z 09004KT 06/01 A3036 RMK A01 T00580009  RH  071%=      5-min Rain = 0
KASU 110055Z 09003KT 06/01 A3036 RMK A01 T00580010  RH  072%=      5-min Rain = 0
KASU 110100Z 09003KT 06/01 A3036 RMK A01 T00580010  RH  072%=      5-min Rain = 0
KASU 110105Z 10004KT 06/01 A3036 RMK A01 T00580009  RH  072%=      5-min Rain = 0
KASU 110110Z 10004KT 06/01 A3037 RMK A01 T00580009  RH  071%=      5-min Rain = 0
KASU 110115Z 10004KT 06/01 A3037 RMK A01 T00580008  RH  071%=      5-min Rain = 0
KASU 110120Z 10004KT 06/01 A3037 RMK A01 T00570008  RH  072%=      5-min Rain = 0
KASU 110125Z 10004KT 06/01 A3037 RMK A01 T00550007  RH  072%=      5-min Rain = 0
KASU 110130Z 10004KT 05/01 A3037 RMK A01 T00530006  RH  073%=      5-min Rain = 0
KASU 110135Z 10004KT 05/01 A3037 RMK A01 T00500005  RH  074%=      5-min Rain = 0
KASU 110140Z 11004KT 05/00 A3037 RMK A01 T00470004  RH  074%=      5-min Rain = 0
KASU 110145Z 11004KT 05/00 A3037 RMK A01 T00450003  RH  075%=      5-min Rain = 0
KASU 110150Z 11004KT 04/00 A3037 RMK A01 T00430003  RH  076%=      5-min Rain = 0
KASU 110155Z 11004KT 04/00 A3037 RMK A01 T00420002  RH  077%=      5-min Rain = 0
KASU 110200Z 11004KT 04/00 A3037 RMK A01 T00400002  RH  077%=      5-min Rain = 0
KASU 110205Z 11004KT 04/00 A3037 RMK A01 T00370001  RH  078%=      5-min Rain = 0
KASU 110210Z 11004KT 04/00 A3037 RMK A01 T00360000  RH  078%=      5-min Rain = 0
KASU 110215Z 11004KT 03/M00 A3037 RMK A01 T00341001  RH  079%=      5-min Rain = 0
KASU 110220Z 11004KT 03/00 A3038 RMK A01 T003300-0  RH  080%=      5-min Rain = 0
KASU 110225Z 12004KT 03/00 A3038 RMK A01 T00330000  RH  080%=      5-min Rain = 0
KASU 110230Z 12002KT 03/00 A3038 RMK A01 T00320000  RH  081%=      5-min Rain = 0
KASU 110235Z 12002KT 03/00 A3038 RMK A01 T00310000  RH  081%=      5-min Rain = 0
KASU 110240Z 12003KT 03/00 A3038 RMK A01 T00320001  RH  081%=      5-min Rain = 0
KASU 110245Z 13002KT 03/00 A3038 RMK A01 T00310002  RH  082%=      5-min Rain = 0
KASU 110250Z 14002KT 03/00 A3039 RMK A01 T00300001  RH  082%=      5-min Rain = 0
KASU 110255Z 12003KT 03/00 A3039 RMK A01 T00300002  RH  082%=      5-min Rain = 0
KASU 110300Z 12004KT 03/00 A3039 RMK A01 T00290001  RH  083%=      5-min Rain = 0
KASU 110305Z 12004KT 03/M00 A3039 RMK A01 T00271001  RH  083%=      5-min Rain = 0
KASU 110310Z 13003KT 03/M00 A3039 RMK A01 T00261001  RH  083%=      5-min Rain = 0
KASU 110315Z 13003KT 03/M00 A3039 RMK A01 T00261001  RH  084%=      5-min Rain = 0
KASU 110320Z 13003KT 03/M00 A3039 RMK A01 T00251001  RH  084%=      5-min Rain = 0
KASU 110325Z 12003KT 03/M00 A3039 RMK A01 T00251001  RH  084%=      5-min Rain = 0
KASU 110330Z 13003KT 02/M00 A3039 RMK A01 T00241001  RH  084%=      5-min Rain = 0
KASU 110335Z 12003KT 02/M00 A3039 RMK A01 T00241001  RH  085%=      5-min Rain = 0
KASU 110340Z 10002KT 03/00 A3039 RMK A01 T00250001  RH  085%=      5-min Rain = 0
KASU 110345Z 11002KT 03/00 A3039 RMK A01 T00250001  RH  085%=      5-min Rain = 0
KASU 110350Z 11002KT 03/00 A3039 RMK A01 T00250001  RH  085%=      5-min Rain = 0
KASU 110355Z 11001KT 03/00 A3039 RMK A01 T00250002  RH  085%=      5-min Rain = 0
KASU 110400Z 06001KT 03/00 A304 RMK A01 T00250002  RH  086%=      5-min Rain = 0
KASU 110405Z 07001KT 03/00 A304 RMK A01 T00250001  RH  086%=      5-min Rain = 0
KASU 110410Z 04001KT 02/M00 A304 RMK A01 T00211003  RH  085%=      5-min Rain = 0
KASU 110415Z 04001KT 02/M01 A304 RMK A01 T00181005  RH  086%=      5-min Rain = 0
KASU 110420Z 05001KT 02/M01 A304 RMK A01 T00181005  RH  086%=      5-min Rain = 0
KASU 110425Z 05002KT 02/M00 A304 RMK A01 T00191003  RH  086%=      5-min Rain = 0
KASU 110430Z 06002KT 02/M01 A304 RMK A01 T00171005  RH  086%=      5-min Rain = 0
KASU 110435Z 08002KT 02/M01 A304 RMK A01 T00161007  RH  086%=      5-min Rain = 0
KASU 110440Z 08003KT 02/M01 A304 RMK A01 T00161006  RH  086%=      5-min Rain = 0
KASU 110445Z 08003KT 02/M01 A304 RMK A01 T00151006  RH  087%=      5-min Rain = 0
KASU 110450Z 08003KT 01/M01 A304 RMK A01 T00131008  RH  087%=      5-min Rain = 0
KASU 110455Z 10002KT 01/M01 A304 RMK A01 T00121009  RH  087%=      5-min Rain = 0
KASU 110500Z 11002KT 01/M01 A304 RMK A01 T00101011  RH  087%=      5-min Rain = 0
KASU 110505Z 10001KT 01/M01 A304 RMK A01 T00091011  RH  087%=      5-min Rain = 0
KASU 110510Z 10001KT 01/M01 A304 RMK A01 T00081012  RH  087%=      5-min Rain = 0
KASU 110515Z 10001KT 01/M01 A304 RMK A01 T00071013  RH  087%=      5-min Rain = 0
KASU 110520Z 10001KT 01/M01 A304 RMK A01 T00081012  RH  087%=      5-min Rain = 0
KASU 110525Z 11002KT 01/M01 A3041 RMK A01 T00101010  RH  087%=      5-min Rain = 0
KASU 110530Z 11000KT 01/M01 A3041 RMK A01 T00081012  RH  087%=      5-min Rain = 0
KASU 110535Z 00000KT 01/M01 A3041 RMK A01 T00061014  RH  087%=      5-min Rain = 0
KASU 110540Z 11000KT 01/M01 A3041 RMK A01 T00061014  RH  088%=      5-min Rain = 0
KASU 110545Z 14001KT 01/M01 A3041 RMK A01 T00061014  RH  088%=      5-min Rain = 0
KASU 110550Z 14003KT 01/M01 A3041 RMK A01 T00101009  RH  088%=      5-min Rain = 0
KASU 110555Z 14004KT 01/M01 A3041 RMK A01 T00141005  RH  088%=      5-min Rain = 0

Page generated in 0.0093 seconds.